EST,Max TemperatureF,Mean TemperatureF,Min TemperatureF,Max Dew PointF,MeanDew PointF,Min DewpointF,Max Humidity, Mean Humidity, Min Humidity, Max Sea Level PressureIn, Mean Sea Level PressureIn, Min Sea Level PressureIn, Max VisibilityMiles, Mean VisibilityMiles, Min VisibilityMiles, Max Wind SpeedMPH, Mean Wind SpeedMPH, Max Gust SpeedMPH,PrecipitationIn, CloudCover, Events, WindDirDegrees
2012-11-1,80,70,59,64,61,56,93,73,52,30.07,30.03,29.99,10,10,10,15,4,21,0.00,3,,281
2012-11-2,80,71,62,64,56,46,93,70,32,30.11,30.06,30.03,10,8,2,13,4,15,0.00,0,,357
2012-11-3,84,71,57,65,59,54,93,71,40,30.16,30.10,30.06,10,10,7,10,2,20,0.00,0,,15
2012-11-4,82,71,59,65,60,55,100,82,40,30.13,30.08,30.01,10,5,0,10,2,13,0.00,2,Fog,291
2012-11-5,79,72,65,66,65,63,93,80,62,30.03,29.99,29.93,10,9,4,10,3,16,0.00,2,,259
2012-11-6,76,70,64,66,64,61,93,87,64,29.95,29.90,29.86,10,8,0,16,2,33,0.66,5,Fog-Rain,309
2012-11-7,73,66,58,57,52,48,84,65,44,30.01,29.94,29.88,10,10,10,22,9,29,0.00,2,,348
2012-11-8,70,62,54,51,41,35,77,50,28,30.18,30.10,29.99,10,10,10,18,9,23,0.00,2,,22
2012-11-9,76,63,50,53,47,42,80,59,31,30.24,30.19,30.15,10,10,10,15,7,20,0.00,0,,48
2012-11-10,79,68,57,55,53,51,80,63,40,30.29,30.24,30.19,10,10,10,16,8,23,0.00,5,,61
2012-11-11,84,72,59,59,56,53,87,64,37,30.25,30.22,30.17,10,10,10,20,7,29,0.00,1,,76
2012-11-12,82,73,64,66,63,59,93,73,52,30.22,30.18,30.14,10,10,10,18,7,24,T,4,,73
2012-11-13,83,74,65,66,63,62,93,70,54,30.17,30.12,30.07,10,10,10,13,6,20,0.00,1,,51
2012-11-14,83,74,64,65,64,62,87,65,41,30.14,30.10,30.06,10,10,10,16,6,20,0.00,1,,49
2012-11-15,80,71,62,68,64,63,97,83,69,30.14,30.09,30.05,10,8,0,12,7,,0.00,3,Fog,36
2012-11-16,69,66,64,63,60,57,87,79,78,30.14,30.11,30.07,10,10,7,12,8,,0.00,6,,32
2012-11-17,80,70,60,61,60,59,87,62,49,30.12,30.08,30.03,10,10,8,14,9,18,0.00,3,,54
2012-11-18,76,69,61,61,60,59,73,66,60,30.16,30.11,30.08,10,10,10,16,11,24,0.00,2,,41
2012-11-19,75,65,55,57,55,53,86,68,46,30.16,30.11,30.05,10,10,9,14,9,,0.00,2,,28
2012-11-20,75,67,58,60,56,54,93,79,57,30.09,30.04,29.96,10,9,2,14,8,20,0.00,6,,346
2012-11-21,76,67,57,55,50,45,87,62,38,30.10,30.03,29.98,10,10,10,20,9,24,0.00,0,,10
2012-11-22,75,64,53,48,41,32,77,50,21,30.17,30.11,30.06,10,10,10,20,9,25,0.00,0,,25
2012-11-23,76,64,52,50,40,25,77,48,15,30.21,30.14,30.09,10,10,10,14,7,17,0.00,0,,10
2012-11-24,77,64,50,59,52,47,93,72,38,30.14,30.09,30.03,10,10,8,15,5,23,0.00,0,,331
2012-11-25,73,61,49,49,45,40,93,62,31,30.17,30.12,30.08,10,10,10,9,3,16,0.00,0,,12
2012-11-26,81,66,51,59,54,46,96,70,39,30.21,30.16,30.11,10,10,10,10,2,17,0.00,1,,121
2012-11-27,82,70,58,66,62,57,93,78,51,30.19,30.15,30.10,10,9,6,13,3,18,0.00,1,,173
2012-11-28,77,69,61,66,62,57,100,81,56,30.22,30.18,30.12,10,8,0,15,7,20,0.00,4,Fog,26
2012-11-29,81,69,57,60,57,54,93,73,45,30.25,30.21,30.15,10,9,7,17,10,23,0.00,2,,54
2012-11-30,79,70,60,60,58,57,90,72,54,30.23,30.18,30.13,10,10,9,18,8,25,0.00,3,,67